createdAt,value
2018-08-16T00:01:05.304Z,99.90
2018-08-16T00:03:33.618Z,99.90
2018-08-16T00:06:01.934Z,99.90
2018-08-16T00:08:30.283Z,99.90
2018-08-16T00:10:58.603Z,99.90
2018-08-16T00:13:26.969Z,99.90
2018-08-16T00:15:55.270Z,99.90
2018-08-16T00:18:23.595Z,99.90
2018-08-16T00:20:51.908Z,99.90
2018-08-16T00:23:20.233Z,99.90
2018-08-16T00:25:48.561Z,99.90
2018-08-16T00:28:16.873Z,99.90
2018-08-16T00:30:45.171Z,99.90
2018-08-16T00:33:13.494Z,99.90
2018-08-16T00:35:41.814Z,99.90
2018-08-16T00:38:10.136Z,99.90
2018-08-16T00:40:38.439Z,99.90
2018-08-16T00:43:06.904Z,99.90
2018-08-16T00:45:35.276Z,99.90
2018-08-16T00:48:03.694Z,99.90
2018-08-16T00:50:31.993Z,99.90
2018-08-16T00:53:00.358Z,99.90
2018-08-16T00:55:28.688Z,99.90
2018-08-16T00:57:57.055Z,99.90
2018-08-16T01:00:25.413Z,99.90
2018-08-16T01:02:53.739Z,99.90
2018-08-16T01:05:22.068Z,99.90
2018-08-16T01:07:50.437Z,99.90
2018-08-16T01:10:18.790Z,99.90
2018-08-16T01:12:47.121Z,99.90
2018-08-16T01:15:16.514Z,99.90
2018-08-16T01:17:44.831Z,99.90
2018-08-16T01:20:13.369Z,99.90
2018-08-16T01:22:41.680Z,99.90
2018-08-16T01:25:11.299Z,99.90
2018-08-16T01:27:39.624Z,99.90
2018-08-16T01:30:08.826Z,99.90
2018-08-16T01:32:37.162Z,99.90
2018-08-16T01:35:05.875Z,99.90
2018-08-16T01:37:34.171Z,99.90
2018-08-16T01:40:02.474Z,99.90
2018-08-16T01:42:30.827Z,99.90
2018-08-16T01:44:59.136Z,99.90
2018-08-16T01:47:28.179Z,99.90
2018-08-16T01:49:56.682Z,99.90
2018-08-16T01:52:25.025Z,99.90
2018-08-16T01:54:53.333Z,99.90
2018-08-16T01:57:21.626Z,99.90
2018-08-16T01:59:49.936Z,99.90
2018-08-16T02:02:18.283Z,99.90
2018-08-16T02:04:46.574Z,99.90
2018-08-16T02:07:14.865Z,99.90
2018-08-16T02:09:43.181Z,99.90
2018-08-16T02:12:11.493Z,99.90
2018-08-16T02:14:39.801Z,99.90
2018-08-16T02:17:08.144Z,99.90
2018-08-16T02:19:36.562Z,99.90
2018-08-16T02:22:04.900Z,99.90
2018-08-16T02:24:33.315Z,99.90
2018-08-16T02:27:02.307Z,99.90
2018-08-16T02:29:30.615Z,99.90
2018-08-16T02:31:58.921Z,99.90
2018-08-16T02:34:27.248Z,99.90
2018-08-16T02:36:55.537Z,99.90
2018-08-16T02:39:23.863Z,99.90
2018-08-16T02:41:52.146Z,99.90
2018-08-16T02:44:20.507Z,99.90
2018-08-16T02:46:48.804Z,99.90
2018-08-16T02:49:17.102Z,99.90
2018-08-16T02:51:45.385Z,99.90
2018-08-16T02:54:13.688Z,99.90
2018-08-16T02:56:42.008Z,99.90
2018-08-16T02:59:10.411Z,99.90
2018-08-16T03:01:38.729Z,99.90
2018-08-16T03:04:07.068Z,99.90
2018-08-16T03:06:35.369Z,99.90
2018-08-16T03:09:04.904Z,99.90
2018-08-16T03:11:33.213Z,99.90
2018-08-16T03:14:01.555Z,99.90
2018-08-16T03:16:29.843Z,99.90
2018-08-16T03:18:58.168Z,99.90
2018-08-16T03:21:26.508Z,99.90
2018-08-16T03:23:54.836Z,99.90
2018-08-16T03:26:23.153Z,99.90
2018-08-16T03:28:51.487Z,99.90
2018-08-16T03:31:19.798Z,99.90
2018-08-16T03:33:48.144Z,99.90
2018-08-16T03:36:16.450Z,99.90
2018-08-16T03:38:44.772Z,99.90
2018-08-16T03:41:13.079Z,99.90
2018-08-16T03:43:41.368Z,99.90
2018-08-16T03:46:09.661Z,99.90
2018-08-16T03:48:37.977Z,99.90
2018-08-16T03:51:06.600Z,99.90
2018-08-16T03:53:34.937Z,99.90
2018-08-16T03:56:03.279Z,99.90
2018-08-16T03:58:31.591Z,99.90
2018-08-16T04:00:59.899Z,99.90
2018-08-16T04:03:28.206Z,99.90
2018-08-16T04:05:56.529Z,99.90
2018-08-16T04:08:24.851Z,99.90
2018-08-16T04:10:53.169Z,99.90
2018-08-16T04:13:21.546Z,99.90
2018-08-16T04:15:49.863Z,99.90
2018-08-16T04:18:18.173Z,99.90
2018-08-16T04:20:46.488Z,99.90
2018-08-16T04:23:14.844Z,99.90
2018-08-16T04:25:43.192Z,99.90
2018-08-16T04:28:11.507Z,99.90
2018-08-16T04:30:40.027Z,99.90
2018-08-16T04:33:08.626Z,99.90
2018-08-16T04:35:36.937Z,99.90
2018-08-16T04:38:05.268Z,99.90
2018-08-16T04:40:33.617Z,99.90
2018-08-16T04:43:01.984Z,99.90
2018-08-16T04:45:30.322Z,99.90
2018-08-16T04:47:58.640Z,99.90
2018-08-16T04:50:26.948Z,99.90
2018-08-16T04:52:55.249Z,99.90
2018-08-16T04:55:23.556Z,99.90
2018-08-16T04:57:51.851Z,99.90
2018-08-16T05:00:20.168Z,99.90
2018-08-16T05:02:48.452Z,99.90
2018-08-16T05:05:16.761Z,99.90
2018-08-16T05:07:45.058Z,99.90
2018-08-16T05:10:13.404Z,99.90
2018-08-16T05:12:41.727Z,99.90
2018-08-16T05:15:12.528Z,99.90
2018-08-16T05:17:40.850Z,99.90
2018-08-16T05:20:11.496Z,99.90
2018-08-16T05:22:39.792Z,99.90
2018-08-16T05:25:08.191Z,99.90
2018-08-16T05:27:36.505Z,99.90
2018-08-16T05:30:07.260Z,99.90
2018-08-16T05:32:35.577Z,99.90
2018-08-16T05:35:04.564Z,99.90
2018-08-16T05:37:32.854Z,99.90
2018-08-16T05:40:01.164Z,99.90
2018-08-16T05:42:29.471Z,99.90
2018-08-16T05:44:57.816Z,99.90
2018-08-16T05:47:26.331Z,99.90
2018-08-16T05:49:54.648Z,99.90
2018-08-16T05:52:23.027Z,99.90
2018-08-16T05:54:51.358Z,99.90
2018-08-16T05:57:19.659Z,99.90
2018-08-16T05:59:47.980Z,99.90
2018-08-16T06:02:16.300Z,99.90
2018-08-16T06:04:44.607Z,99.90
2018-08-16T06:07:12.955Z,99.90
2018-08-16T06:09:41.334Z,99.90
2018-08-16T06:12:09.671Z,99.90
2018-08-16T06:14:38.041Z,99.90
2018-08-16T06:17:06.368Z,99.90
2018-08-16T06:19:34.703Z,99.90
2018-08-16T06:22:03.051Z,99.90
2018-08-16T06:24:31.450Z,99.90
2018-08-16T06:26:59.751Z,99.90
2018-08-16T06:29:28.074Z,99.90
2018-08-16T06:31:56.608Z,99.90
2018-08-16T06:34:24.970Z,99.90
2018-08-16T06:36:53.332Z,99.90
2018-08-16T06:39:21.637Z,99.90
2018-08-16T06:41:49.996Z,99.90
2018-08-16T06:44:18.318Z,99.90
2018-08-16T06:46:46.659Z,99.90
2018-08-16T06:49:14.963Z,99.90
2018-08-16T06:51:43.300Z,99.90
2018-08-16T06:54:11.606Z,99.90
2018-08-16T06:56:39.924Z,99.90
2018-08-16T06:59:08.217Z,99.90
2018-08-16T07:01:36.543Z,99.90
2018-08-16T07:04:04.839Z,99.90
2018-08-16T07:06:33.173Z,99.90
2018-08-16T07:09:01.480Z,99.90
2018-08-16T07:11:29.806Z,99.90
2018-08-16T07:13:58.105Z,99.90
2018-08-16T07:16:26.438Z,99.90
2018-08-16T07:18:54.767Z,99.90
2018-08-16T07:21:23.063Z,99.90
2018-08-16T07:23:51.343Z,99.90
2018-08-16T07:26:26.251Z,99.90
2018-08-16T07:28:54.527Z,99.90
2018-08-16T07:31:22.844Z,99.90
2018-08-16T07:33:51.291Z,99.90
2018-08-16T07:36:19.619Z,99.90
2018-08-16T07:38:47.989Z,99.90
2018-08-16T07:41:16.316Z,99.90
2018-08-16T07:43:44.679Z,99.90
2018-08-16T07:46:13.072Z,99.90
2018-08-16T07:48:41.337Z,99.90
2018-08-16T07:51:09.739Z,99.90
2018-08-16T07:53:38.037Z,99.90
2018-08-16T07:56:06.539Z,99.90
2018-08-16T07:58:35.064Z,99.90
2018-08-16T08:01:03.271Z,99.90
2018-08-16T08:03:31.642Z,99.90
2018-08-16T08:06:00.103Z,99.90
2018-08-16T08:08:28.424Z,99.90
2018-08-16T08:10:56.744Z,99.90
2018-08-16T08:13:25.173Z,99.90
2018-08-16T08:15:53.471Z,99.90
2018-08-16T08:18:21.879Z,99.90
2018-08-16T08:20:50.204Z,99.90
2018-08-16T08:23:18.543Z,99.90
2018-08-16T08:25:46.872Z,99.90
2018-08-16T08:28:15.258Z,99.90
2018-08-16T08:30:43.560Z,99.90
2018-08-16T08:33:11.878Z,99.90
2018-08-16T08:35:40.217Z,99.90
2018-08-16T08:38:17.657Z,99.90
2018-08-16T08:40:46.036Z,99.90
2018-08-16T08:43:26.173Z,99.90
2018-08-16T08:45:54.992Z,99.90
2018-08-16T08:48:23.382Z,99.90
2018-08-16T08:50:51.675Z,99.90
2018-08-16T08:53:31.374Z,99.90
2018-08-16T08:56:10.801Z,99.90
2018-08-16T08:58:50.944Z,99.90
2018-08-16T09:01:19.261Z,99.90
2018-08-16T09:03:47.582Z,99.90
2018-08-16T09:06:15.911Z,99.90
2018-08-16T09:08:44.294Z,99.90
2018-08-16T09:12:23.885Z,99.90
2018-08-16T09:15:03.682Z,99.90
2018-08-16T09:17:31.993Z,99.90
2018-08-16T09:20:00.320Z,99.90
2018-08-16T09:22:28.627Z,99.90
2018-08-16T09:24:56.938Z,99.90
2018-08-16T09:27:25.309Z,99.90
2018-08-16T09:30:18.515Z,99.90
2018-08-16T09:32:57.982Z,99.90
2018-08-16T09:35:27.348Z,99.90
2018-08-16T09:37:56.941Z,99.90
2018-08-16T09:40:25.242Z,99.90
2018-08-16T09:42:53.691Z,99.90
2018-08-16T09:45:33.552Z,99.90
2018-08-16T09:48:12.963Z,99.90
2018-08-16T09:50:41.371Z,99.90
2018-08-16T09:53:09.698Z,99.90
2018-08-16T09:55:38.007Z,99.90
2018-08-16T09:58:06.326Z,99.90
2018-08-16T10:00:40.136Z,99.90
2018-08-16T10:03:08.516Z,99.90
2018-08-16T10:05:36.865Z,99.90
2018-08-16T10:08:05.186Z,99.90
2018-08-16T10:10:33.492Z,99.90
2018-08-16T10:13:01.831Z,99.90
2018-08-16T10:15:30.144Z,99.90
2018-08-16T10:17:58.476Z,99.90
2018-08-16T10:20:26.779Z,99.90
2018-08-16T10:22:55.096Z,99.90
2018-08-16T10:25:23.414Z,99.90
2018-08-16T10:27:51.752Z,99.90
2018-08-16T10:30:20.042Z,99.90
2018-08-16T10:32:48.463Z,99.90
2018-08-16T10:35:16.861Z,99.90
2018-08-16T10:37:45.142Z,99.90
2018-08-16T10:40:13.461Z,99.90
2018-08-16T10:42:42.523Z,99.90
2018-08-16T10:45:11.110Z,99.90
2018-08-16T10:47:39.461Z,99.90
2018-08-16T10:50:07.763Z,99.90
2018-08-16T10:52:36.081Z,99.90
2018-08-16T10:55:04.393Z,99.90
2018-08-16T10:57:32.711Z,99.90
2018-08-16T11:00:00.993Z,99.90
2018-08-16T11:02:29.315Z,99.90
2018-08-16T11:04:57.626Z,99.90
2018-08-16T11:07:26.002Z,99.90
2018-08-16T11:09:54.299Z,99.90
2018-08-16T11:12:22.631Z,99.90
2018-08-16T11:14:50.935Z,99.90
2018-08-16T11:17:19.293Z,99.90
2018-08-16T11:19:47.650Z,99.90
2018-08-16T11:22:15.975Z,99.90
2018-08-16T11:24:44.287Z,99.90
2018-08-16T11:27:12.593Z,99.90
2018-08-16T11:29:40.891Z,99.90
2018-08-16T11:32:09.231Z,99.90
2018-08-16T11:34:37.557Z,99.90
2018-08-16T11:37:06.059Z,99.90
2018-08-16T11:39:34.346Z,99.90
2018-08-16T11:42:02.678Z,99.90
2018-08-16T11:44:30.984Z,99.90
2018-08-16T11:46:59.333Z,99.90
2018-08-16T11:49:27.649Z,99.90
2018-08-16T11:51:55.941Z,99.90
2018-08-16T11:54:24.269Z,99.90
2018-08-16T11:56:52.569Z,99.90
2018-08-16T11:59:20.870Z,99.90
2018-08-16T12:01:49.190Z,99.90
2018-08-16T12:04:17.520Z,99.90
2018-08-16T12:06:45.844Z,99.90
2018-08-16T12:09:14.191Z,99.90
2018-08-16T12:11:42.507Z,99.90
2018-08-16T12:14:10.832Z,99.90
2018-08-16T12:16:39.823Z,99.90
2018-08-16T12:19:08.275Z,99.90
2018-08-16T12:21:36.584Z,99.90
2018-08-16T12:24:06.021Z,99.90
2018-08-16T12:26:34.401Z,99.90
2018-08-16T12:29:02.769Z,99.90
2018-08-16T12:31:31.013Z,99.90
2018-08-16T12:33:59.342Z,99.90
2018-08-16T12:36:27.823Z,99.90
2018-08-16T12:38:56.371Z,99.90
2018-08-16T12:41:24.660Z,99.90
2018-08-16T12:43:52.987Z,99.90
2018-08-16T12:46:21.372Z,99.90
2018-08-16T12:48:49.623Z,99.90
2018-08-16T12:51:18.201Z,99.90
2018-08-16T12:53:46.515Z,99.90
2018-08-16T12:56:14.837Z,99.90
2018-08-16T12:58:43.331Z,99.90
2018-08-16T13:01:11.670Z,99.90
2018-08-16T13:03:39.959Z,99.90
2018-08-16T13:06:08.276Z,99.90
2018-08-16T13:08:36.552Z,99.90
2018-08-16T13:11:05.020Z,99.90
2018-08-16T13:13:33.398Z,99.90
2018-08-16T13:16:01.752Z,99.90
2018-08-16T13:18:30.303Z,99.90
2018-08-16T13:20:58.611Z,99.90
2018-08-16T13:23:26.967Z,99.90
2018-08-16T13:25:55.258Z,99.90
2018-08-16T13:28:23.569Z,99.90
2018-08-16T13:30:51.911Z,99.90
2018-08-16T13:33:20.206Z,99.80
2018-08-16T13:35:48.530Z,98.70
2018-08-16T13:38:16.837Z,99.10
2018-08-16T13:40:45.138Z,98.70
2018-08-16T13:43:13.535Z,98.50
2018-08-16T13:45:41.888Z,97.70
2018-08-16T13:48:10.350Z,96.90
2018-08-16T13:50:38.682Z,96.60
2018-08-16T13:53:07.388Z,95.90
2018-08-16T13:55:35.745Z,95.20
2018-08-16T13:58:04.085Z,95.00
2018-08-16T14:00:32.420Z,94.70
2018-08-16T14:03:00.767Z,93.90
2018-08-16T14:05:29.088Z,93.10
2018-08-16T14:07:57.389Z,93.30
2018-08-16T14:10:25.710Z,92.20
2018-08-16T14:12:54.220Z,92.90
2018-08-16T14:15:22.420Z,92.70
2018-08-16T14:17:50.817Z,92.30
2018-08-16T14:20:19.131Z,92.10
2018-08-16T14:22:47.441Z,91.50
2018-08-16T14:27:50.458Z,87.10
2018-08-16T14:30:18.785Z,87.10
2018-08-16T14:32:47.102Z,84.70
2018-08-16T14:35:15.424Z,83.10
2018-08-16T14:37:43.782Z,82.70
2018-08-16T14:40:12.108Z,83.00
2018-08-16T14:42:40.403Z,83.50
2018-08-16T14:45:09.163Z,82.00
2018-08-16T14:47:37.453Z,80.40
2018-08-16T14:50:06.543Z,77.40
2018-08-16T14:52:35.020Z,78.90
2018-08-16T14:55:03.361Z,77.40
2018-08-16T14:57:31.654Z,76.50
2018-08-16T15:00:00.030Z,74.90
2018-08-16T15:02:28.338Z,75.50
2018-08-16T15:04:56.678Z,73.80
2018-08-16T15:07:25.269Z,72.50
2018-08-16T15:09:53.635Z,73.00
2018-08-16T15:12:21.992Z,73.30
2018-08-16T15:14:50.297Z,70.50
2018-08-16T15:17:18.628Z,69.90
2018-08-16T15:19:47.063Z,67.90
2018-08-16T15:22:15.368Z,67.90
2018-08-16T15:24:43.660Z,68.20
2018-08-16T15:27:11.981Z,67.10
2018-08-16T15:29:40.281Z,66.50
2018-08-16T15:32:08.701Z,64.30
2018-08-16T15:34:37.071Z,62.90
2018-08-16T15:37:05.389Z,61.50
2018-08-16T15:39:33.719Z,62.40
2018-08-16T15:42:02.016Z,60.50
2018-08-16T15:44:30.419Z,60.90
2018-08-16T15:46:58.759Z,57.80
2018-08-16T15:49:27.056Z,57.70
2018-08-16T15:51:55.403Z,55.50
2018-08-16T15:54:23.695Z,54.50
2018-08-16T15:56:52.292Z,53.80
2018-08-16T15:59:20.754Z,53.10
2018-08-16T16:01:49.099Z,51.20
2018-08-16T16:04:17.403Z,51.00
2018-08-16T16:06:45.725Z,50.80
2018-08-16T16:09:14.007Z,50.40
2018-08-16T16:11:42.335Z,50.60
2018-08-16T16:14:10.668Z,50.10
2018-08-16T16:16:38.991Z,51.00
2018-08-16T16:19:07.295Z,50.20
2018-08-16T16:21:35.674Z,51.70
2018-08-16T16:24:03.980Z,52.40
2018-08-16T16:26:32.291Z,54.00
2018-08-16T16:29:00.588Z,55.20
2018-08-16T16:31:28.879Z,57.00
2018-08-16T16:33:57.516Z,57.20
2018-08-16T16:36:25.875Z,58.80
2018-08-16T16:38:54.221Z,59.40
2018-08-16T16:41:22.535Z,59.80
2018-08-16T16:43:50.828Z,60.60
2018-08-16T16:46:19.152Z,63.10
2018-08-16T16:48:47.436Z,62.60
2018-08-16T16:51:15.764Z,62.70
2018-08-16T16:53:44.082Z,65.00
2018-08-16T16:56:12.384Z,67.00
2018-08-16T16:58:40.704Z,67.50
2018-08-16T17:01:09.057Z,67.20
2018-08-16T17:03:37.340Z,68.30
2018-08-16T17:06:05.843Z,69.10
2018-08-16T17:08:34.168Z,67.90
2018-08-16T17:11:02.569Z,68.50
2018-08-16T17:13:30.908Z,68.70
2018-08-16T17:15:59.237Z,67.00
2018-08-16T17:18:27.559Z,69.60
2018-08-16T17:20:55.947Z,68.70
2018-08-16T17:23:24.264Z,70.60
2018-08-16T17:25:52.599Z,71.30
2018-08-16T17:28:20.935Z,73.10
2018-08-16T17:30:49.269Z,71.80
2018-08-16T17:33:17.639Z,72.00
2018-08-16T17:35:45.966Z,72.90
2018-08-16T17:38:14.360Z,74.60
2018-08-16T17:40:42.689Z,76.20
2018-08-16T17:43:11.014Z,75.40
2018-08-16T17:45:39.359Z,77.70
2018-08-16T17:48:07.997Z,79.30
2018-08-16T17:50:36.319Z,76.00
2018-08-16T17:53:04.652Z,77.60
2018-08-16T17:55:32.993Z,78.20
2018-08-16T17:58:01.331Z,76.30
2018-08-16T18:00:29.669Z,76.00
2018-08-16T18:02:58.136Z,77.10
2018-08-16T18:05:26.491Z,77.30
2018-08-16T18:07:54.786Z,76.50
2018-08-16T18:10:23.119Z,76.70
2018-08-16T18:12:51.480Z,79.70
2018-08-16T18:15:19.775Z,77.90
2018-08-16T18:17:48.135Z,79.30
2018-08-16T18:20:16.515Z,80.60
2018-08-16T18:22:44.839Z,80.00
2018-08-16T18:25:13.149Z,82.20
2018-08-16T18:27:41.473Z,83.00
2018-08-16T18:30:11.286Z,84.20
2018-08-16T18:32:39.792Z,85.10
2018-08-16T18:35:08.094Z,86.40
2018-08-16T18:37:36.420Z,87.60
2018-08-16T18:40:05.718Z,89.80
2018-08-16T18:42:34.193Z,90.00
2018-08-16T18:45:02.505Z,90.50
2018-08-16T18:47:30.851Z,90.40
2018-08-16T18:49:59.495Z,90.50
2018-08-16T18:52:28.239Z,91.20
2018-08-16T18:54:56.654Z,91.30
2018-08-16T18:57:24.993Z,92.10
2018-08-16T18:59:53.302Z,91.90
2018-08-16T19:02:21.852Z,92.70
2018-08-16T19:04:50.213Z,92.90
2018-08-16T19:07:18.599Z,93.10
2018-08-16T19:09:46.894Z,93.30
2018-08-16T19:12:15.256Z,93.30
2018-08-16T19:14:43.622Z,93.70
2018-08-16T19:17:11.960Z,93.90
2018-08-16T19:19:40.264Z,94.10
2018-08-16T19:22:08.592Z,94.50
2018-08-16T19:24:36.936Z,94.80
2018-08-16T19:27:05.724Z,95.40
2018-08-16T19:29:34.220Z,95.60
2018-08-16T19:32:02.500Z,96.10
2018-08-16T19:34:30.832Z,96.30
2018-08-16T19:36:59.162Z,96.20
2018-08-16T19:39:27.521Z,96.50
2018-08-16T19:41:56.246Z,97.00
2018-08-16T19:44:24.712Z,97.40
2018-08-16T19:46:53.022Z,97.80
2018-08-16T19:49:21.724Z,98.40
2018-08-16T19:51:50.028Z,98.50
2018-08-16T19:54:18.406Z,98.90
2018-08-16T19:56:46.744Z,99.10
2018-08-16T19:59:15.132Z,99.70
2018-08-16T20:01:43.454Z,99.90
2018-08-16T20:04:11.792Z,99.90
2018-08-16T20:06:40.231Z,99.90
2018-08-16T20:09:09.606Z,99.90
2018-08-16T20:11:38.401Z,99.90
2018-08-16T20:14:06.776Z,99.90
2018-08-16T20:16:35.129Z,99.90
2018-08-16T20:19:03.634Z,99.90
2018-08-16T20:21:31.974Z,99.90
2018-08-16T20:24:00.333Z,99.90
2018-08-16T20:26:28.628Z,99.90
2018-08-16T20:28:56.968Z,99.90
2018-08-16T20:31:25.287Z,99.90
2018-08-16T20:33:53.724Z,99.90
2018-08-16T20:36:22.020Z,99.90
2018-08-16T20:38:50.405Z,99.90
2018-08-16T20:41:18.758Z,99.90
2018-08-16T20:43:47.095Z,99.90
2018-08-16T20:46:15.565Z,99.90
2018-08-16T20:48:43.909Z,99.90
2018-08-16T20:51:12.543Z,99.90
2018-08-16T20:53:40.912Z,99.90
2018-08-16T20:56:09.236Z,99.90
2018-08-16T20:58:37.611Z,99.90
2018-08-16T21:01:06.235Z,99.90
2018-08-16T21:03:34.574Z,99.90
2018-08-16T21:06:02.895Z,99.90
2018-08-16T21:08:31.285Z,99.90
2018-08-16T21:10:59.655Z,99.90
2018-08-16T21:13:28.166Z,99.90
2018-08-16T21:15:56.771Z,99.90
2018-08-16T21:18:25.154Z,99.90
2018-08-16T21:20:53.649Z,99.90
2018-08-16T21:23:21.910Z,99.90
2018-08-16T21:25:50.198Z,99.90
2018-08-16T21:28:18.711Z,99.90
2018-08-16T21:30:47.062Z,99.90
2018-08-16T21:33:15.416Z,99.90
2018-08-16T21:35:43.708Z,99.90
2018-08-16T21:38:12.023Z,99.90
2018-08-16T21:40:40.330Z,99.90
2018-08-16T21:43:08.653Z,99.90
2018-08-16T21:45:36.948Z,99.90
2018-08-16T21:48:05.466Z,99.90
2018-08-16T21:50:33.887Z,99.90
2018-08-16T21:53:02.191Z,99.90
2018-08-16T21:55:30.483Z,99.90
2018-08-16T21:57:58.803Z,99.90
2018-08-16T22:00:47.428Z,99.90
2018-08-16T22:03:17.298Z,99.90
2018-08-16T22:05:57.021Z,99.90
2018-08-16T22:08:28.466Z,99.90
2018-08-16T22:10:56.793Z,99.90
2018-08-16T22:13:25.375Z,99.90
2018-08-16T22:15:53.676Z,99.90
2018-08-16T22:18:21.985Z,99.90
2018-08-16T22:20:50.288Z,99.90
2018-08-16T22:23:18.604Z,99.90
2018-08-16T22:25:46.943Z,99.90
2018-08-16T22:28:15.249Z,99.90
2018-08-16T22:30:43.553Z,99.90
2018-08-16T22:33:11.929Z,99.90
2018-08-16T22:35:40.246Z,99.90
2018-08-16T22:38:08.532Z,99.90
2018-08-16T22:40:36.866Z,99.90
2018-08-16T22:43:05.305Z,99.90
2018-08-16T22:45:33.619Z,99.90
2018-08-16T22:48:01.906Z,99.90
2018-08-16T22:50:30.240Z,99.90
2018-08-16T22:52:58.586Z,99.90
2018-08-16T22:55:26.919Z,99.90
2018-08-16T22:57:55.238Z,99.90
2018-08-16T23:00:23.556Z,99.90
2018-08-16T23:02:51.842Z,99.90
2018-08-16T23:05:20.176Z,99.90
2018-08-16T23:07:48.517Z,99.90
2018-08-16T23:10:16.899Z,99.90
2018-08-16T23:12:45.325Z,99.90
2018-08-16T23:15:13.763Z,99.90
2018-08-16T23:17:42.075Z,99.90
2018-08-16T23:20:10.685Z,99.90
2018-08-16T23:22:39.340Z,99.90
2018-08-16T23:25:08.167Z,99.90
2018-08-16T23:27:36.487Z,99.90
2018-08-16T23:30:08.693Z,99.90
2018-08-16T23:32:37.008Z,99.90
2018-08-16T23:35:05.592Z,99.90
2018-08-16T23:37:34.138Z,99.90
2018-08-16T23:40:02.642Z,99.90
2018-08-16T23:42:30.948Z,99.90
2018-08-16T23:44:59.346Z,99.90
2018-08-16T23:47:27.691Z,99.90
2018-08-16T23:49:56.058Z,99.90
2018-08-16T23:52:24.329Z,99.90
2018-08-16T23:54:52.676Z,99.90
2018-08-16T23:57:21.358Z,99.90
2018-08-16T23:59:49.742Z,99.90
